To NAV CANADA Home Page Login to a new session Search on AWWS site Disclaimer Vers la page française équivalente Tips FAQ What's new on the site To the Forecasts and Observations / NOTAM section To "File a Flight Plan" website Publications and other links Update of the User's profile FIC Telephone Numbers My Weather Data Folder Route Weather Data Regional Weather Data Local Weather Data To the Forecasts and Observations / NOTAM section
Request Generated 09/16/2021 at 15:03:17 UTC . Weather information available at that time is displayed.

METAR/TAF

TORONTO/BILLY BISHOP TORONTO CITY AIRPORT/ON    (show WxCam)

METAR CYTZ 161500Z AUTO 08008KT 9SM CLR 19/15 A3024 RMK SLP241 DENSITY ALT 500FT=
METAR CYTZ 161400Z AUTO 08009KT 9SM CLR 19/14 A3023 RMK SLP237 DENSITY ALT 500FT=
METAR CYTZ 161300Z AUTO 07009KT 9SM FEW044 SCT066 18/13 A3022 RMK SLP235 DENSITY ALT 400FT=

TAF CYTZ 161339Z 1614/1714 07010KT P6SM FEW040 SCT070
FM161700 10010KT P6SM FEW040
FM170800 07008KT P6SM FEW015 TEMPO 1708/1714 BKN015
RMK FCST BASED ON AUTO OBS. NXT FCST BY 162000Z=
Your time UTC time
Weather data provided by Environment Canada and NAV CANADA